Huvudsida
METAR-TAF:

METAR-TAF

Flygplatser :

Örebro flygplats

Örebro, Sverige

latitud: 59-14N, longitud: 015-03E, höjd: 57 m

Aktuellt väderrapport

Denna rapport gjordes för 15 minuter sedan, klockan 20:50 UTC
Vind 9 kt från sydväst, varierande mellan syd/sydväst och väst
Temperatur 7°C
Fuktighet 87%
Tryck 1007 hPa
Sikt: 9000 m
Mulet på en höjd av 700 ft
fuktdis

METAR: ESOE 262050Z 23009KT 200V260 9000 BR OVC007 07/05 Q1007

Tid: 22:05 (21:05 UTC)

Väderprognos

Denna rapport gjordes för 35 minuter sedan, klockan 20:30 UTC
Prognos gäller från 26 kl. 21 UTC till 27 kl. 06 UTC
Vind 9 kt från sydväst
Sikt 10 km eller mer
Spridda moln på en höjd av 600 ft
Brutna moln på en höjd av 1500 ft
Temporärt
från 26 kl. 21 UTC till 26 kl. 24 UTC
Sikt: 4000 m
Brutna moln på en höjd av 700 ft
fuktdis

TAF: ESOE 262030Z 2621/2706 22009KT 9999 SCT006 BKN015 TEMPO 2621/2624 4000 BR BKN007

Aktuella väderrapporter och prognoser från 4000 flygplatser (METAR- och TAF-rapporter).

De tillgängliga stationerna syns som gula och röda prickar på kartan.

För musen över prickarna för att se namnen på stationerna.

Klicka sedan för att få väderrapporter och prognoser.

För att ändra kartan: Klicka på de gröna knapparna med ett svart kors på för att zooma in; den gröna knappen med ett streck på för att zooma ut; eller på de gröna pilarna för angränsande kartor.


METAR-TAF: